Time;durP1;ratioP1;P1;durP2;ratioP2;P2;SDS_P1;SDS_P2;PMS_P1;PMS_P2;Temp;Humidity;BMP_temperature;BMP_pressure;BME280_temperature;BME280_humidity;BME280_pressure;Samples;Min_cycle;Max_cycle;Signal;HPM_P1;HPM_P2
2022/07/09 00:01:50;;;;;;;3.17;1.70;;;;;;;;;;5068587;28;20028;-72
2022/07/09 00:04:15;;;;;;;3.65;1.90;;;;;;;;;;5068283;28;20036;-72
2022/07/09 00:06:40;;;;;;;3.97;1.80;;;;;;;;;;5068545;28;20385;-71
2022/07/09 00:09:05;;;;;;;2.58;1.70;;;;;;;;;;5068049;28;20030;-72
2022/07/09 00:11:31;;;;;;;3.10;1.98;;;;;;;;;;5068610;28;20131;-71
2022/07/09 00:13:56;;;;;;;3.15;1.70;;;;;;;;;;5068436;28;20094;-72
2022/07/09 00:16:21;;;;;;;4.25;1.80;;;;;;;;;;5068067;28;20035;-71
2022/07/09 00:18:47;;;;;;;2.40;1.67;;;;;;;;;;5067547;28;20113;-72
2022/07/09 00:21:12;;;;;;;2.03;1.60;;;;;;;;;;5068423;28;20067;-72
2022/07/09 00:23:37;;;;;;;2.75;1.77;;;;;;;;;;5068136;28;20115;-71
2022/07/09 00:26:03;;;;;;;2.42;1.67;;;;;;;;;;5068025;28;20489;-72
2022/07/09 00:28:28;;;;;;;2.55;1.90;;;;;;;;;;5067862;28;20064;-72
2022/07/09 00:30:53;;;;;;;2.08;1.67;;;;;;;;;;5068026;28;20047;-72
2022/07/09 00:33:19;;;;;;;5.13;1.88;;;;;;;;;;5068096;28;20024;-73
2022/07/09 00:35:44;;;;;;;2.15;1.83;;;;;;;;;;5068035;28;20139;-72
2022/07/09 00:38:09;;;;;;;3.78;2.15;;;;;;;;;;5067893;28;20107;-72
2022/07/09 00:40:34;;;;;;;3.22;1.80;;;;;;;;;;5068166;28;20123;-71
2022/07/09 00:43:00;;;;;;;3.47;1.98;;;;;;;;;;5068605;28;20032;-72
2022/07/09 00:45:26;;;;;;;5.50;2.25;;;;;;;;;;5067993;28;20466;-72
2022/07/09 00:47:51;;;;;;;1.92;1.52;;;;;;;;;;5068311;28;20115;-72
2022/07/09 00:50:16;;;;;;;4.15;1.75;;;;;;;;;;5067661;28;20028;-73
2022/07/09 00:52:43;;;;;;;2.00;1.52;;;;;;;;;;5067916;28;20101;-72
2022/07/09 00:55:09;;;;;;;3.50;1.80;;;;;;;;;;5067711;28;20039;-72
2022/07/09 00:57:35;;;;;;;2.47;1.70;;;;;;;;;;5068113;28;20442;-72
2022/07/09 01:00:00;;;;;;;2.58;1.90;;;;;;;;;;5067705;28;20060;-72
2022/07/09 01:02:25;;;;;;;2.67;1.60;;;;;;;;;;5067923;28;20036;-72
2022/07/09 01:04:51;;;;;;;4.43;1.60;;;;;;;;;;5067959;28;20120;-72
2022/07/09 01:07:17;;;;;;;3.83;1.95;;;;;;;;;;5068134;28;20033;-72
2022/07/09 01:09:42;;;;;;;2.25;1.70;;;;;;;;;;5067463;28;20029;-72
2022/07/09 01:12:08;;;;;;;4.63;1.90;;;;;;;;;;5067718;28;20451;-72
2022/07/09 01:14:33;;;;;;;3.08;1.75;;;;;;;;;;5067909;28;20032;-72
2022/07/09 01:17:03;;;;;;;1.88;1.67;;;;;;;;;;5067634;28;20032;-72
2022/07/09 01:19:29;;;;;;;2.67;1.75;;;;;;;;;;5067277;28;20501;-72
2022/07/09 01:21:55;;;;;;;2.63;1.83;;;;;;;;;;5067507;28;20036;-72
2022/07/09 01:24:22;;;;;;;1.88;1.75;;;;;;;;;;5067501;28;20059;-72
2022/07/09 01:26:48;;;;;;;2.10;1.90;;;;;;;;;;5067589;28;20103;-72
2022/07/09 01:29:13;;;;;;;1.95;1.80;;;;;;;;;;5067344;28;20103;-72
2022/07/09 01:31:39;;;;;;;2.42;1.80;;;;;;;;;;5068816;28;20035;-72
2022/07/09 01:34:04;;;;;;;2.45;2.00;;;;;;;;;;5071123;28;20107;-72
2022/07/09 01:36:29;;;;;;;3.28;2.00;;;;;;;;;;5071204;28;20036;-72
2022/07/09 01:38:54;;;;;;;2.42;2.13;;;;;;;;;;5070786;28;20063;-71
2022/07/09 01:41:20;;;;;;;3.67;2.00;;;;;;;;;;5071211;28;20104;-72
2022/07/09 01:43:45;;;;;;;2.72;2.28;;;;;;;;;;5071291;28;20056;-72
2022/07/09 01:46:10;;;;;;;3.08;2.10;;;;;;;;;;5070771;28;20043;-71
2022/07/09 01:48:36;;;;;;;2.67;2.20;;;;;;;;;;5070752;28;20383;-72
2022/07/09 01:51:02;;;;;;;3.83;2.17;;;;;;;;;;5070749;28;20024;-72
2022/07/09 01:53:27;;;;;;;2.63;2.00;;;;;;;;;;5070798;28;20111;-72
2022/07/09 01:55:52;;;;;;;3.08;2.25;;;;;;;;;;5070680;28;20489;-72
2022/07/09 01:58:18;;;;;;;3.85;2.10;;;;;;;;;;5070675;28;20016;-73
2022/07/09 02:00:44;;;;;;;2.13;1.98;;;;;;;;;;5070988;28;20115;-71
2022/07/09 02:03:09;;;;;;;3.47;2.00;;;;;;;;;;5070796;28;20070;-72
2022/07/09 02:05:34;;;;;;;3.15;1.90;;;;;;;;;;5070393;28;20060;-72
2022/07/09 02:07:59;;;;;;;2.92;2.10;;;;;;;;;;5070251;28;20113;-72
2022/07/09 02:10:25;;;;;;;3.00;2.03;;;;;;;;;;5070607;28;20028;-72
2022/07/09 02:12:50;;;;;;;3.90;2.05;;;;;;;;;;5070337;28;20025;-71
2022/07/09 02:15:16;;;;;;;2.30;2.00;;;;;;;;;;5070425;28;20020;-71
2022/07/09 02:17:41;;;;;;;2.50;1.92;;;;;;;;;;5070418;28;20448;-72
2022/07/09 02:20:08;;;;;;;3.00;1.90;;;;;;;;;;5069998;28;20385;-72
2022/07/09 02:22:34;;;;;;;4.88;1.95;;;;;;;;;;5070026;28;20025;-72
2022/07/09 02:24:59;;;;;;;3.70;2.22;;;;;;;;;;5070088;28;20028;-72
2022/07/09 02:27:24;;;;;;;2.75;2.10;;;;;;;;;;5070105;28;20031;-72
2022/07/09 02:29:49;;;;;;;2.20;2.00;;;;;;;;;;5069975;28;20021;-72
2022/07/09 02:32:15;;;;;;;3.78;2.45;;;;;;;;;;5070067;28;20027;-72
2022/07/09 02:34:40;;;;;;;3.30;2.13;;;;;;;;;;5070088;28;20020;-71
2022/07/09 02:37:06;;;;;;;4.22;2.28;;;;;;;;;;5069781;28;20047;-71
2022/07/09 02:39:32;;;;;;;2.33;1.88;;;;;;;;;;5069793;28;20498;-72
2022/07/09 02:41:57;;;;;;;3.08;2.20;;;;;;;;;;5069584;28;20081;-72
2022/07/09 02:44:22;;;;;;;2.80;2.20;;;;;;;;;;5069754;28;20020;-72
2022/07/09 02:46:48;;;;;;;3.72;2.40;;;;;;;;;;5069783;28;20016;-72
2022/07/09 02:49:13;;;;;;;4.30;2.35;;;;;;;;;;5069501;28;20024;-71
2022/07/09 02:51:38;;;;;;;3.08;2.45;;;;;;;;;;5069515;28;20024;-71
2022/07/09 02:54:04;;;;;;;4.13;2.40;;;;;;;;;;5069705;28;20035;-72
2022/07/09 02:56:30;;;;;;;3.80;2.30;;;;;;;;;;5069603;28;20032;-71
2022/07/09 02:58:55;;;;;;;2.92;2.22;;;;;;;;;;5069691;28;20604;-72
2022/07/09 03:01:20;;;;;;;3.92;2.30;;;;;;;;;;5069432;28;20024;-72
2022/07/09 03:03:46;;;;;;;6.10;2.22;;;;;;;;;;5069533;28;20036;-72
2022/07/09 03:06:12;;;;;;;2.85;2.58;;;;;;;;;;5068954;28;20444;-72
2022/07/09 03:08:38;;;;;;;4.70;2.83;;;;;;;;;;5069362;28;20489;-72
2022/07/09 03:11:06;;;;;;;2.35;2.15;;;;;;;;;;5069522;28;20029;-72
2022/07/09 03:13:32;;;;;;;3.33;2.17;;;;;;;;;;5069249;28;20097;-72
2022/07/09 03:15:57;;;;;;;3.92;2.35;;;;;;;;;;5069148;28;20068;-71
2022/07/09 03:18:22;;;;;;;3.50;2.30;;;;;;;;;;5069307;28;20095;-71
2022/07/09 03:20:48;;;;;;;2.42;2.22;;;;;;;;;;5068853;28;20037;-71
2022/07/09 03:23:13;;;;;;;3.28;2.30;;;;;;;;;;5069549;28;20097;-71
2022/07/09 03:25:39;;;;;;;2.50;2.30;;;;;;;;;;5069167;28;20020;-72
2022/07/09 03:28:04;;;;;;;2.33;2.13;;;;;;;;;;5068922;28;20044;-72
2022/07/09 03:30:30;;;;;;;2.38;2.05;;;;;;;;;;5068964;28;20039;-72
2022/07/09 03:32:55;;;;;;;4.57;2.65;;;;;;;;;;5068884;28;20027;-72
2022/07/09 03:35:21;;;;;;;3.83;2.28;;;;;;;;;;5068687;28;20024;-73
2022/07/09 03:37:46;;;;;;;3.70;2.40;;;;;;;;;;5068709;28;20483;-72
2022/07/09 03:40:11;;;;;;;4.40;2.40;;;;;;;;;;5068565;28;20107;-72
2022/07/09 03:42:37;;;;;;;2.50;2.30;;;;;;;;;;5068868;28;20078;-72
2022/07/09 03:45:02;;;;;;;4.72;2.70;;;;;;;;;;5068647;28;20557;-72
2022/07/09 03:47:28;;;;;;;3.72;2.40;;;;;;;;;;5068614;28;20041;-72
2022/07/09 03:49:53;;;;;;;3.53;2.50;;;;;;;;;;5068332;28;20099;-72
2022/07/09 03:52:18;;;;;;;3.47;2.50;;;;;;;;;;5068597;28;20028;-72
2022/07/09 03:54:44;;;;;;;4.50;2.50;;;;;;;;;;5066617;28;20034;-71
2022/07/09 03:57:09;;;;;;;3.40;2.70;;;;;;;;;;5068948;28;20112;-72
2022/07/09 03:59:35;;;;;;;5.97;2.67;;;;;;;;;;5068174;28;20471;-72
2022/07/09 04:02:00;;;;;;;5.95;2.70;;;;;;;;;;5068372;28;20043;-72
2022/07/09 04:04:26;;;;;;;6.68;2.65;;;;;;;;;;5068211;28;20379;-72
2022/07/09 04:06:51;;;;;;;4.00;2.70;;;;;;;;;;5068723;28;20020;-72
2022/07/09 04:09:17;;;;;;;3.40;2.28;;;;;;;;;;5068180;28;20048;-72
2022/07/09 04:11:43;;;;;;;5.68;2.60;;;;;;;;;;5068328;28;20026;-72
2022/07/09 04:14:08;;;;;;;3.72;2.63;;;;;;;;;;5068176;28;20020;-72
2022/07/09 04:16:33;;;;;;;3.58;2.40;;;;;;;;;;5068255;28;20029;-72
2022/07/09 04:18:59;;;;;;;4.70;2.58;;;;;;;;;;5067936;28;20020;-72
2022/07/09 04:21:24;;;;;;;7.05;2.50;;;;;;;;;;5068107;28;20100;-72
2022/07/09 04:23:50;;;;;;;3.45;2.50;;;;;;;;;;5068186;28;20078;-72
2022/07/09 04:26:16;;;;;;;3.63;2.13;;;;;;;;;;5068303;28;20107;-72
2022/07/09 04:28:41;;;;;;;3.28;2.50;;;;;;;;;;5068038;28;20034;-72
2022/07/09 04:31:06;;;;;;;3.05;2.45;;;;;;;;;;5068140;28;20033;-72
2022/07/09 04:33:32;;;;;;;4.35;2.70;;;;;;;;;;5068033;28;20031;-71
2022/07/09 04:35:57;;;;;;;4.82;2.50;;;;;;;;;;5068038;28;20042;-71
2022/07/09 04:38:23;;;;;;;3.55;2.55;;;;;;;;;;5068091;28;20032;-72
2022/07/09 04:40:48;;;;;;;4.53;2.80;;;;;;;;;;5067963;28;20036;-72
2022/07/09 04:43:14;;;;;;;4.38;2.63;;;;;;;;;;5067990;28;20040;-72
2022/07/09 04:45:39;;;;;;;5.38;2.70;;;;;;;;;;5068235;28;20703;-72
2022/07/09 04:48:04;;;;;;;4.00;2.88;;;;;;;;;;5067718;28;20033;-71
2022/07/09 04:50:30;;;;;;;3.10;2.80;;;;;;;;;;5068094;28;20021;-71
2022/07/09 04:52:55;;;;;;;2.78;2.58;;;;;;;;;;5068042;28;20282;-72
2022/07/09 04:55:21;;;;;;;5.90;2.90;;;;;;;;;;5068064;28;20071;-71
2022/07/09 04:57:48;;;;;;;3.13;2.83;;;;;;;;;;5067940;28;20023;-72
2022/07/09 05:00:15;;;;;;;3.30;2.60;;;;;;;;;;5067861;28;20536;-71
2022/07/09 05:02:42;;;;;;;2.97;2.67;;;;;;;;;;5067696;28;20520;-71
2022/07/09 05:05:08;;;;;;;3.83;2.80;;;;;;;;;;5068404;28;20363;-73
2022/07/09 05:07:33;;;;;;;4.30;2.75;;;;;;;;;;5071557;28;20105;-72
2022/07/09 05:10:01;;;;;;;4.75;3.00;;;;;;;;;;5071448;28;20025;-72
2022/07/09 05:12:26;;;;;;;3.65;2.80;;;;;;;;;;5071465;28;20494;-72
2022/07/09 05:14:52;;;;;;;2.72;2.53;;;;;;;;;;5071400;28;20024;-72
2022/07/09 05:17:17;;;;;;;3.75;2.88;;;;;;;;;;5071506;28;20033;-72
2022/07/09 05:19:42;;;;;;;3.47;2.92;;;;;;;;;;5071025;28;20403;-72
2022/07/09 05:22:08;;;;;;;4.07;2.88;;;;;;;;;;5071526;28;20025;-72
2022/07/09 05:24:33;;;;;;;3.92;2.78;;;;;;;;;;5071281;28;20051;-72
2022/07/09 05:26:58;;;;;;;4.03;3.00;;;;;;;;;;5071473;28;20028;-73
2022/07/09 05:29:25;;;;;;;4.05;2.90;;;;;;;;;;5070974;28;20031;-72
2022/07/09 05:31:50;;;;;;;2.72;2.45;;;;;;;;;;5071140;28;20119;-72
2022/07/09 05:34:16;;;;;;;3.70;2.60;;;;;;;;;;5070810;28;20224;-73
2022/07/09 05:36:41;;;;;;;4.25;2.50;;;;;;;;;;5069686;28;20028;-72
2022/07/09 05:39:07;;;;;;;3.85;2.50;;;;;;;;;;5070985;28;20078;-73
2022/07/09 05:41:32;;;;;;;2.83;2.30;;;;;;;;;;5070996;28;20111;-72
2022/07/09 05:43:58;;;;;;;3.55;2.40;;;;;;;;;;5071132;28;20032;-72
2022/07/09 05:46:23;;;;;;;3.67;2.33;;;;;;;;;;5070974;28;20390;-72
2022/07/09 05:48:48;;;;;;;5.22;3.08;;;;;;;;;;5073087;28;20024;-72
2022/07/09 05:51:13;;;;;;;5.30;2.67;;;;;;;;;;5070564;28;20104;-72
2022/07/09 05:53:39;;;;;;;3.90;2.60;;;;;;;;;;5087042;28;20028;-72
2022/07/09 05:56:04;;;;;;;2.75;2.42;;;;;;;;;;5071599;28;20082;-72
2022/07/09 05:58:30;;;;;;;4.32;2.67;;;;;;;;;;5070517;28;20039;-71
2022/07/09 06:00:55;;;;;;;3.95;2.50;;;;;;;;;;5070629;28;20029;-72
2022/07/09 06:03:20;;;;;;;3.50;2.45;;;;;;;;;;5070530;28;20036;-72
2022/07/09 06:05:46;;;;;;;3.50;2.40;;;;;;;;;;5070452;28;20553;-72
2022/07/09 06:08:12;;;;;;;2.80;2.28;;;;;;;;;;5069886;28;20024;-72
2022/07/09 06:10:37;;;;;;;4.18;2.38;;;;;;;;;;5070423;28;20048;-72
2022/07/09 06:13:02;;;;;;;3.20;2.88;;;;;;;;;;5070891;28;20036;-72
2022/07/09 06:15:28;;;;;;;3.38;2.35;;;;;;;;;;5070460;28;20028;-73
2022/07/09 06:17:53;;;;;;;3.08;2.20;;;;;;;;;;5068032;28;20055;-72
2022/07/09 06:20:18;;;;;;;4.20;2.22;;;;;;;;;;5070191;28;20028;-73
2022/07/09 06:22:44;;;;;;;2.47;2.03;;;;;;;;;;5070476;28;20021;-73
2022/07/09 06:25:09;;;;;;;3.70;2.30;;;;;;;;;;5070144;28;20104;-73
2022/07/09 06:27:35;;;;;;;2.97;2.10;;;;;;;;;;5070300;28;20024;-73
2022/07/09 06:30:01;;;;;;;3.97;2.15;;;;;;;;;;5069898;28;20299;-72
2022/07/09 06:32:26;;;;;;;2.80;2.03;;;;;;;;;;5069075;28;20024;-73
2022/07/09 06:34:51;;;;;;;5.18;1.77;;;;;;;;;;5070257;28;20052;-73
2022/07/09 06:37:17;;;;;;;3.58;1.88;;;;;;;;;;5070513;28;20036;-73
2022/07/09 06:39:45;;;;;;;2.80;1.80;;;;;;;;;;5070024;28;20461;-73
2022/07/09 06:42:12;;;;;;;5.32;2.20;;;;;;;;;;5070146;28;20093;-74
2022/07/09 06:44:37;;;;;;;3.17;2.10;;;;;;;;;;5070206;28;20028;-73
2022/07/09 06:47:04;;;;;;;3.67;1.88;;;;;;;;;;5070254;28;20021;-73
2022/07/09 06:49:29;;;;;;;2.72;1.70;;;;;;;;;;5069583;28;20052;-73
2022/07/09 06:51:55;;;;;;;2.63;1.77;;;;;;;;;;5069850;28;20063;-73
2022/07/09 06:54:20;;;;;;;5.38;1.80;;;;;;;;;;5069613;28;20035;-72
2022/07/09 06:56:46;;;;;;;2.83;1.80;;;;;;;;;;5067387;28;20016;-72
2022/07/09 06:59:11;;;;;;;3.05;1.90;;;;;;;;;;5066344;28;20154;-73
2022/07/09 07:01:37;;;;;;;2.70;1.70;;;;;;;;;;5065625;28;20196;-73
2022/07/09 07:04:02;;;;;;;4.10;1.60;;;;;;;;;;5066932;28;20028;-73
2022/07/09 07:06:27;;;;;;;2.67;1.73;;;;;;;;;;5079229;22;20044;-75
2022/07/09 07:08:53;;;;;;;3.88;1.70;;;;;;;;;;5068325;28;20028;-75
2022/07/09 07:11:18;;;;;;;3.72;1.77;;;;;;;;;;5062826;28;20453;-75
2022/07/09 07:13:43;;;;;;;3.17;1.50;;;;;;;;;;5069201;28;20024;-75
2022/07/09 07:16:09;;;;;;;4.18;1.83;;;;;;;;;;5068967;28;20020;-75
2022/07/09 07:18:34;;;;;;;3.92;1.88;;;;;;;;;;5069063;28;20025;-75
2022/07/09 07:20:59;;;;;;;5.68;1.60;;;;;;;;;;5069071;28;20055;-75
2022/07/09 07:23:25;;;;;;;5.03;1.63;;;;;;;;;;5069085;28;20107;-75
2022/07/09 07:25:50;;;;;;;2.92;1.77;;;;;;;;;;5068696;28;20455;-73
2022/07/09 07:28:15;;;;;;;4.90;2.22;;;;;;;;;;5068082;28;20111;-73
2022/07/09 07:30:41;;;;;;;2.42;1.60;;;;;;;;;;5068257;28;20461;-74
2022/07/09 07:33:06;;;;;;;2.00;1.50;;;;;;;;;;5069083;28;20436;-76
2022/07/09 07:35:31;;;;;;;5.70;1.70;;;;;;;;;;5067316;28;20028;-73
2022/07/09 07:37:58;;;;;;;3.75;1.90;;;;;;;;;;5068955;28;20174;-76
2022/07/09 07:40:24;;;;;;;3.10;1.45;;;;;;;;;;5068615;28;20033;-75
2022/07/09 07:42:50;;;;;;;4.28;1.80;;;;;;;;;;5068806;28;20509;-74
2022/07/09 07:45:15;;;;;;;2.53;1.25;;;;;;;;;;5068534;28;20034;-75
2022/07/09 07:47:40;;;;;;;3.80;1.50;;;;;;;;;;5068593;28;20024;-74
2022/07/09 07:50:06;;;;;;;4.65;1.38;;;;;;;;;;5068614;28;20909;-76
2022/07/09 07:52:32;;;;;;;2.92;1.08;;;;;;;;;;5068479;28;20039;-75
2022/07/09 07:54:57;;;;;;;1.67;1.10;;;;;;;;;;5068539;28;20024;-76
2022/07/09 07:57:22;;;;;;;1.85;1.20;;;;;;;;;;5069536;28;20036;-76
2022/07/09 07:59:48;;;;;;;4.47;1.25;;;;;;;;;;5068085;28;20029;-74
2022/07/09 08:02:13;;;;;;;3.40;1.30;;;;;;;;;;5068083;28;20024;-75
2022/07/09 08:04:40;;;;;;;2.55;1.17;;;;;;;;;;5068253;28;20032;-74
2022/07/09 08:07:05;;;;;;;3.63;1.25;;;;;;;;;;5068509;28;20040;-75
2022/07/09 08:09:32;;;;;;;3.53;1.30;;;;;;;;;;5067028;28;20036;-72
2022/07/09 08:11:57;;;;;;;1.55;1.10;;;;;;;;;;5068486;28;20340;-76
2022/07/09 08:14:23;;;;;;;5.00;1.90;;;;;;;;;;5067476;28;20087;-76
2022/07/09 08:16:48;;;;;;;1.83;1.07;;;;;;;;;;5068162;28;20312;-75
2022/07/09 08:19:15;;;;;;;2.65;1.20;;;;;;;;;;5068344;28;20826;-75
2022/07/09 08:21:41;;;;;;;4.43;1.38;;;;;;;;;;5066643;28;20031;-75
2022/07/09 08:24:06;;;;;;;2.20;1.35;;;;;;;;;;5066944;28;20448;-74
2022/07/09 08:26:32;;;;;;;2.80;1.30;;;;;;;;;;5068467;28;20519;-76
2022/07/09 08:28:57;;;;;;;3.20;1.48;;;;;;;;;;5067831;28;20730;-75
2022/07/09 08:31:23;;;;;;;3.92;1.60;;;;;;;;;;5068678;28;20082;-76
2022/07/09 08:33:49;;;;;;;3.45;1.10;;;;;;;;;;5068850;28;20043;-75
2022/07/09 08:36:16;;;;;;;3.35;1.25;;;;;;;;;;5068298;28;20021;-76
2022/07/09 08:38:41;;;;;;;3.33;1.20;;;;;;;;;;5071051;28;20077;-76
2022/07/09 08:41:07;;;;;;;3.13;1.50;;;;;;;;;;5070550;28;20032;-75
2022/07/09 08:43:37;;;;;;;3.17;1.30;;;;;;;;;;5072264;28;20265;-75
2022/07/09 08:46:03;;;;;;;3.20;1.00;;;;;;;;;;5072849;28;20407;-77
2022/07/09 08:48:33;;;;;;;2.10;1.17;;;;;;;;;;5070380;28;20079;-76
2022/07/09 08:50:59;;;;;;;3.35;1.05;;;;;;;;;;5071869;28;20020;-75
2022/07/09 08:53:27;;;;;;;1.77;1.10;;;;;;;;;;5072489;28;20047;-74
2022/07/09 08:55:53;;;;;;;1.77;1.00;;;;;;;;;;5071851;28;20181;-75
2022/07/09 08:58:18;;;;;;;1.67;1.05;;;;;;;;;;5070146;28;20529;-75
2022/07/09 09:00:44;;;;;;;3.30;1.03;;;;;;;;;;5071676;28;20024;-76
2022/07/09 09:03:09;;;;;;;3.43;1.30;;;;;;;;;;5071890;28;20256;-73
2022/07/09 09:05:34;;;;;;;2.28;1.10;;;;;;;;;;5071384;28;20268;-74
2022/07/09 09:07:59;;;;;;;1.70;0.93;;;;;;;;;;5071375;28;20025;-73
2022/07/09 09:10:27;;;;;;;3.30;1.13;;;;;;;;;;5069957;28;20516;-73
2022/07/09 09:13:00;;;;;;;2.38;1.10;;;;;;;;;;5071349;28;20269;-73
2022/07/09 09:15:25;;;;;;;3.55;1.20;;;;;;;;;;5071491;28;20028;-71
2022/07/09 09:17:51;;;;;;;1.90;1.25;;;;;;;;;;5071951;28;20039;-71
2022/07/09 09:20:17;;;;;;;1.55;1.10;;;;;;;;;;5071211;28;20067;-73
2022/07/09 09:22:59;;;;;;;3.03;1.45;;;;;;;;;;5069933;28;20021;-71
2022/07/09 09:25:24;;;;;;;1.73;1.08;;;;;;;;;;5071123;28;20457;-71
2022/07/09 09:27:54;;;;;;;2.50;1.13;;;;;;;;;;5071700;28;20048;-72
2022/07/09 09:30:21;;;;;;;1.63;1.10;;;;;;;;;;5070058;28;20257;-71
2022/07/09 09:32:55;;;;;;;2.50;1.10;;;;;;;;;;5071337;28;20713;-71
2022/07/09 09:35:21;;;;;;;1.52;0.90;;;;;;;;;;5071193;28;20028;-73
2022/07/09 09:37:46;;;;;;;1.47;0.83;;;;;;;;;;5070904;28;20039;-70
2022/07/09 09:40:12;;;;;;;1.50;0.80;;;;;;;;;;5070985;28;20277;-72
2022/07/09 09:42:41;;;;;;;4.25;1.05;;;;;;;;;;5071079;28;20028;-72
2022/07/09 09:45:07;;;;;;;2.80;0.82;;;;;;;;;;5071408;28;20390;-73
2022/07/09 09:47:33;;;;;;;0.95;0.70;;;;;;;;;;5071034;28;20393;-74
2022/07/09 09:50:00;;;;;;;1.77;0.70;;;;;;;;;;5070472;28;20107;-73
2022/07/09 09:52:26;;;;;;;0.90;0.70;;;;;;;;;;5069749;28;20808;-74
2022/07/09 09:54:52;;;;;;;0.70;0.70;;;;;;;;;;5070498;28;20040;-72
2022/07/09 09:57:20;;;;;;;1.55;1.10;;;;;;;;;;5070684;28;20021;-73
2022/07/09 09:59:46;;;;;;;2.28;0.90;;;;;;;;;;5070382;28;20394;-73
2022/07/09 10:02:12;;;;;;;0.88;0.70;;;;;;;;;;5070449;28;20033;-72
2022/07/09 10:04:41;;;;;;;3.15;1.25;;;;;;;;;;5070439;28;20160;-73
2022/07/09 10:07:08;;;;;;;1.77;0.60;;;;;;;;;;5067201;28;20032;-73
2022/07/09 10:09:34;;;;;;;1.08;0.80;;;;;;;;;;5068622;28;20035;-73
2022/07/09 10:11:59;;;;;;;1.05;0.90;;;;;;;;;;5069808;28;20017;-73
2022/07/09 10:14:24;;;;;;;2.83;0.90;;;;;;;;;;5071924;28;20029;-74
2022/07/09 10:16:51;;;;;;;1.13;0.70;;;;;;;;;;5069921;28;20025;-73
2022/07/09 10:19:30;;;;;;;1.77;0.85;;;;;;;;;;5070119;28;20346;-72
2022/07/09 10:21:57;;;;;;;3.13;0.90;;;;;;;;;;5069930;28;20036;-73
2022/07/09 10:24:30;;;;;;;0.82;0.63;;;;;;;;;;5070351;28;20028;-75
2022/07/09 10:27:09;;;;;;;1.02;0.85;;;;;;;;;;5070355;28;20021;-76
2022/07/09 10:29:50;;;;;;;1.58;1.10;;;;;;;;;;5070012;28;20024;-74
2022/07/09 10:32:24;;;;;;;0.97;0.73;;;;;;;;;;5068817;28;20401;-74
2022/07/09 10:35:25;;;;;;;2.55;0.90;;;;;;;;;;5070080;28;20482;-74
2022/07/09 10:37:53;;;;;;;;;;;;;;;;;;5070302;28;20532;-75
2022/07/09 10:40:19;;;;;;;2.38;1.00;;;;;;;;;;5069706;28;19939;-74
2022/07/09 10:42:56;;;;;;;2.08;1.00;;;;;;;;;;5070212;28;20467;-73
2022/07/09 10:45:27;;;;;;;1.48;0.90;;;;;;;;;;5069899;28;20302;-75
2022/07/09 10:47:58;;;;;;;1.60;1.10;;;;;;;;;;5069959;28;20020;-75
2022/07/09 10:50:24;;;;;;;2.75;0.85;;;;;;;;;;5069924;28;20078;-74
2022/07/09 10:52:50;;;;;;;1.17;1.00;;;;;;;;;;5069611;28;20040;-74
2022/07/09 10:55:21;;;;;;;1.05;0.80;;;;;;;;;;5068217;28;20034;-75
2022/07/09 10:57:46;;;;;;;2.63;1.58;;;;;;;;;;5069625;28;20024;-75
2022/07/09 11:00:16;;;;;;;1.30;0.80;;;;;;;;;;5068006;28;20024;-75
2022/07/09 11:02:54;;;;;;;1.00;0.90;;;;;;;;;;5069259;28;20071;-75
2022/07/09 11:05:20;;;;;;;1.60;0.80;;;;;;;;;;5069145;28;20512;-73
2022/07/09 11:08:01;;;;;;;1.60;0.80;;;;;;;;;;5069410;28;20028;-74
2022/07/09 11:10:27;;;;;;;1.10;0.90;;;;;;;;;;5069406;28;20048;-75
2022/07/09 11:12:55;;;;;;;1.75;0.88;;;;;;;;;;5069396;28;20025;-74
2022/07/09 11:15:21;;;;;;;2.00;0.88;;;;;;;;;;5069334;28;20055;-74
2022/07/09 11:17:56;;;;;;;1.42;0.80;;;;;;;;;;5069095;28;20093;-75
2022/07/09 11:20:21;;;;;;;2.03;1.20;;;;;;;;;;5069146;28;20025;-74
2022/07/09 11:22:48;;;;;;;2.38;0.95;;;;;;;;;;5069467;28;20028;-73
2022/07/09 11:25:15;;;;;;;1.17;0.88;;;;;;;;;;5069175;28;20020;-73
2022/07/09 11:27:40;;;;;;;4.38;1.48;;;;;;;;;;5067779;28;20062;-72
2022/07/09 11:30:06;;;;;;;2.65;1.17;;;;;;;;;;5069083;28;20446;-74
2022/07/09 11:32:32;;;;;;;2.17;1.10;;;;;;;;;;5068773;28;20028;-74
2022/07/09 11:34:58;;;;;;;0.90;0.80;;;;;;;;;;5068974;28;20506;-74
2022/07/09 11:37:26;;;;;;;1.33;0.90;;;;;;;;;;5068787;28;20074;-74
2022/07/09 11:39:53;;;;;;;1.58;0.80;;;;;;;;;;5068773;28;20032;-74
2022/07/09 11:42:19;;;;;;;2.95;0.70;;;;;;;;;;5068683;28;20614;-74
2022/07/09 11:44:57;;;;;;;4.57;0.70;;;;;;;;;;5067150;28;20024;-73
2022/07/09 11:47:36;;;;;;;0.93;0.70;;;;;;;;;;5068632;28;20342;-73
2022/07/09 11:50:10;;;;;;;1.15;0.90;;;;;;;;;;5068405;28;20069;-76
2022/07/09 11:52:36;;;;;;;1.25;0.77;;;;;;;;;;5068516;28;20070;-73
2022/07/09 11:55:09;;;;;;;1.85;0.90;;;;;;;;;;5068518;28;20463;-74
2022/07/09 11:57:36;;;;;;;2.47;0.95;;;;;;;;;;5068476;28;20039;-73
2022/07/09 12:00:21;;;;;;;1.98;1.33;;;;;;;;;;5068544;28;20074;-75
2022/07/09 12:02:46;;;;;;;2.05;1.10;;;;;;;;;;5068328;28;20028;-74
2022/07/09 12:05:13;;;;;;;1.33;0.80;;;;;;;;;;5068624;28;20037;-75
2022/07/09 12:07:39;;;;;;;1.75;0.73;;;;;;;;;;5068389;28;20262;-75
2022/07/09 12:10:12;;;;;;;2.45;0.90;;;;;;;;;;5068175;28;20032;-74
2022/07/09 12:12:38;;;;;;;2.70;1.05;;;;;;;;;;5067367;28;20024;-74
2022/07/09 12:15:04;;;;;;;1.20;0.70;;;;;;;;;;5067800;28;20406;-72
2022/07/09 12:17:31;;;;;;;2.03;1.20;;;;;;;;;;5068425;28;20029;-75
2022/07/09 12:19:57;;;;;;;1.08;0.80;;;;;;;;;;5068152;28;20028;-73
2022/07/09 12:22:23;;;;;;;1.67;1.00;;;;;;;;;;5068210;28;20482;-74
2022/07/09 12:24:50;;;;;;;1.90;1.08;;;;;;;;;;5068185;28;20028;-73
2022/07/09 12:27:15;;;;;;;1.10;1.00;;;;;;;;;;5068500;28;20477;-74
2022/07/09 12:29:41;;;;;;;1.40;1.15;;;;;;;;;;5068239;28;20124;-73
2022/07/09 12:32:06;;;;;;;1.65;0.93;;;;;;;;;;5068482;28;20021;-75
2022/07/09 12:34:32;;;;;;;2.40;0.90;;;;;;;;;;5068485;28;20028;-72
2022/07/09 12:36:57;;;;;;;2.92;1.10;;;;;;;;;;5068008;28;20025;-74
2022/07/09 12:39:23;;;;;;;1.00;0.90;;;;;;;;;;5068375;28;20040;-74
2022/07/09 12:41:48;;;;;;;1.17;1.05;;;;;;;;;;5068297;28;20394;-73
2022/07/09 12:44:13;;;;;;;2.05;1.20;;;;;;;;;;5068165;28;20067;-73
2022/07/09 12:46:39;;;;;;;1.27;0.80;;;;;;;;;;5068042;28;20351;-75
2022/07/09 12:49:04;;;;;;;0.90;0.90;;;;;;;;;;5067996;28;20078;-74
2022/07/09 12:51:29;;;;;;;1.90;1.30;;;;;;;;;;5068050;28;20017;-76
2022/07/09 12:53:55;;;;;;;1.80;1.05;;;;;;;;;;5067446;28;20024;-74
2022/07/09 12:56:20;;;;;;;1.48;1.00;;;;;;;;;;5066665;28;20055;-73
2022/07/09 12:58:46;;;;;;;2.55;1.10;;;;;;;;;;5067805;28;20024;-73
2022/07/09 13:01:11;;;;;;;1.77;1.10;;;;;;;;;;5068076;28;20355;-75
2022/07/09 13:03:36;;;;;;;2.63;1.20;;;;;;;;;;5068171;28;20031;-76
2022/07/09 13:06:02;;;;;;;1.73;1.30;;;;;;;;;;5076006;28;20068;-73
2022/07/09 13:08:27;;;;;;;1.10;1.00;;;;;;;;;;5088431;28;20028;-75
2022/07/09 13:10:53;;;;;;;4.03;1.45;;;;;;;;;;5088484;28;20049;-74
2022/07/09 13:13:18;;;;;;;1.23;1.00;;;;;;;;;;5088473;28;20032;-73
2022/07/09 13:15:44;;;;;;;2.72;1.08;;;;;;;;;;5087577;28;20035;-73
2022/07/09 13:18:09;;;;;;;3.17;1.40;;;;;;;;;;5088173;28;20024;-73
2022/07/09 13:20:34;;;;;;;1.77;1.13;;;;;;;;;;5088060;28;20022;-73
2022/07/09 13:22:59;;;;;;;1.10;1.00;;;;;;;;;;5087711;28;20268;-74
2022/07/09 13:25:25;;;;;;;1.33;1.23;;;;;;;;;;5086258;28;20028;-73
2022/07/09 13:27:51;;;;;;;1.50;1.40;;;;;;;;;;5091311;28;20673;-73
2022/07/09 13:30:20;;;;;;;2.28;1.50;;;;;;;;;;5091597;28;20290;-72
2022/07/09 13:32:46;;;;;;;2.60;1.20;;;;;;;;;;5091782;28;20032;-72
2022/07/09 13:35:11;;;;;;;2.15;1.40;;;;;;;;;;5090543;28;20404;-71
2022/07/09 13:37:37;;;;;;;4.97;1.80;;;;;;;;;;5091914;28;20022;-74
2022/07/09 13:40:03;;;;;;;4.00;2.30;;;;;;;;;;5091479;28;20265;-73
2022/07/09 13:42:28;;;;;;;3.05;1.30;;;;;;;;;;5090265;28;20047;-73
2022/07/09 13:44:54;;;;;;;1.90;1.17;;;;;;;;;;5091214;28;20074;-75
2022/07/09 13:47:19;;;;;;;2.00;1.48;;;;;;;;;;5091232;28;20031;-73
2022/07/09 13:49:44;;;;;;;1.33;1.23;;;;;;;;;;5091045;28;20095;-75
2022/07/09 13:52:10;;;;;;;2.00;1.50;;;;;;;;;;5091152;28;20020;-74
2022/07/09 13:54:35;;;;;;;2.42;1.50;;;;;;;;;;5090896;28;20028;-74
2022/07/09 13:57:01;;;;;;;2.47;1.70;;;;;;;;;;5091328;28;20028;-74
2022/07/09 13:59:26;;;;;;;1.40;1.30;;;;;;;;;;5090938;28;20039;-74
2022/07/09 14:01:51;;;;;;;5.45;3.28;;;;;;;;;;5091215;28;20469;-73
2022/07/09 14:04:16;;;;;;;2.40;1.30;;;;;;;;;;5091021;28;20490;-73
2022/07/09 14:06:42;;;;;;;1.40;1.30;;;;;;;;;;5090725;28;20032;-73
2022/07/09 14:09:07;;;;;;;1.73;1.25;;;;;;;;;;5090423;28;20034;-75
2022/07/09 14:11:33;;;;;;;1.40;1.30;;;;;;;;;;5075391;28;20032;-73
2022/07/09 14:14:00;;;;;;;1.88;1.38;;;;;;;;;;5071028;28;20024;-74
2022/07/09 14:16:25;;;;;;;1.05;0.95;;;;;;;;;;5070527;28;20116;-75
2022/07/09 14:18:51;;;;;;;1.52;1.42;;;;;;;;;;5068663;28;20116;-74
2022/07/09 14:21:17;;;;;;;2.33;1.50;;;;;;;;;;5070237;28;20031;-75
2022/07/09 14:23:47;;;;;;;1.45;1.30;;;;;;;;;;5070563;28;20032;-75
2022/07/09 14:26:13;;;;;;;1.88;1.40;;;;;;;;;;5070190;28;20016;-74
2022/07/09 14:28:39;;;;;;;2.50;1.30;;;;;;;;;;5070231;28;20099;-73
2022/07/09 14:31:04;;;;;;;2.60;1.30;;;;;;;;;;5070060;28;20056;-73
2022/07/09 14:33:29;;;;;;;1.88;1.20;;;;;;;;;;5070183;28;20103;-74
2022/07/09 14:35:55;;;;;;;3.40;1.58;;;;;;;;;;5069675;28;20029;-74
2022/07/09 14:38:20;;;;;;;1.45;1.15;;;;;;;;;;5069383;28;20061;-73